Echo Bay, Nevada
Current Conditions -  °F | °C
As of 7:58 PM on Saturday 24 Jan 2015 (Local Time) from KLSV Reporting Station
Clear Clear  
Wind Chill: 51°   Ceiling: Unl
Heat Index: 51°   Visibility: 10mi
Dew Point: 24°   Wind: 6mph
Humidity: 35%   Direction: 90°E
Pressure: 30.24"   Gusts: NA
Location:  36.5809°N, 114.605°W
Report Text: KLSV 250358Z AUTO 09005KT 10SM CLR 11/M04 A3024 RMK AO2 SLP238 T01081043 $
Loading
Personal Weather Stations






























Interactive Weather Map New forecast layout! Learn more

10-Day Weather Forecast

Advertisements
Track Severe Weather on mobile